sensor_id;sensor_type;location;lat;lon;timestamp;pressure;altitude;pressure_sealevel;temperature;humidity
46946;BME280;32679;40.810;14.498;2023-04-30T00:00:18;99915.47;;;16.12;99.89
46946;BME280;32679;40.810;14.498;2023-04-30T00:02:46;99901.06;;;16.07;100.00
46946;BME280;32679;40.810;14.498;2023-04-30T00:05:14;99901.84;;;16.14;100.00
46946;BME280;32679;40.810;14.498;2023-04-30T00:07:42;99900.25;;;16.10;100.00
46946;BME280;32679;40.810;14.498;2023-04-30T00:10:10;99885.81;;;16.11;99.70
46946;BME280;32679;40.810;14.498;2023-04-30T00:12:39;99877.03;;;16.06;99.31
46946;BME280;32679;40.810;14.498;2023-04-30T00:15:07;99864.22;;;16.01;99.01
46946;BME280;32679;40.810;14.498;2023-04-30T00:17:35;99872.19;;;16.10;98.15
46946;BME280;32679;40.810;14.498;2023-04-30T00:20:02;99864.63;;;16.00;99.01
46946;BME280;32679;40.810;14.498;2023-04-30T00:22:33;99864.25;;;15.94;99.53
46946;BME280;32679;40.810;14.498;2023-04-30T00:24:59;99868.25;;;15.93;99.63
46946;BME280;32679;40.810;14.498;2023-04-30T00:27:27;99855.44;;;15.88;100.00
46946;BME280;32679;40.810;14.498;2023-04-30T00:29:52;99860.28;;;15.84;99.88
46946;BME280;32679;40.810;14.498;2023-04-30T00:32:23;99854.25;;;15.86;99.35
46946;BME280;32679;40.810;14.498;2023-04-30T00:34:51;99849.88;;;15.78;100.00
46946;BME280;32679;40.810;14.498;2023-04-30T00:37:20;99833.81;;;15.82;99.66
46946;BME280;32679;40.810;14.498;2023-04-30T00:39:47;99842.19;;;15.96;98.66
46946;BME280;32679;40.810;14.498;2023-04-30T00:42:15;99840.22;;;15.86;98.79
46946;BME280;32679;40.810;14.498;2023-04-30T00:44:43;99843.84;;;15.79;99.01
46946;BME280;32679;40.810;14.498;2023-04-30T00:47:08;99834.28;;;15.69;99.66
46946;BME280;32679;40.810;14.498;2023-04-30T00:49:36;99849.09;;;15.70;99.03
46946;BME280;32679;40.810;14.498;2023-04-30T00:52:02;99843.50;;;15.66;98.67
46946;BME280;32679;40.810;14.498;2023-04-30T00:54:30;99839.50;;;15.64;98.39
46946;BME280;32679;40.810;14.498;2023-04-30T00:56:58;99844.28;;;15.60;98.18
46946;BME280;32679;40.810;14.498;2023-04-30T00:59:23;99839.88;;;15.55;97.26
46946;BME280;32679;40.810;14.498;2023-04-30T01:01:54;99841.13;;;15.47;98.75
46946;BME280;32679;40.810;14.498;2023-04-30T01:04:25;99842.75;;;15.41;98.81
46946;BME280;32679;40.810;14.498;2023-04-30T01:06:54;99843.53;;;15.38;98.59
46946;BME280;32679;40.810;14.498;2023-04-30T01:09:23;99843.94;;;15.33;99.57
46946;BME280;32679;40.810;14.498;2023-04-30T01:14:42;99795.16;;;14.91;99.57
46946;BME280;32679;40.810;14.498;2023-04-30T01:17:27;99838.75;;;15.17;99.96
46946;BME280;32679;40.810;14.498;2023-04-30T01:19:59;99848.38;;;15.12;100.00
46946;BME280;32679;40.810;14.498;2023-04-30T01:30:28;99828.34;;;15.21;100.00
46946;BME280;32679;40.810;14.498;2023-04-30T01:32:58;99830.72;;;15.37;99.44
46946;BME280;32679;40.810;14.498;2023-04-30T01:40:44;99816.34;;;15.24;100.00
46946;BME280;32679;40.810;14.498;2023-04-30T01:46:25;99823.56;;;15.22;100.00
46946;BME280;32679;40.810;14.498;2023-04-30T01:51:40;99826.34;;;15.22;100.00
46946;BME280;32679;40.810;14.498;2023-04-30T01:54:35;99834.78;;;15.18;100.00
46946;BME280;32679;40.810;14.498;2023-04-30T01:57:06;99832.38;;;15.13;100.00
46946;BME280;32679;40.810;14.498;2023-04-30T01:59:37;99844.41;;;15.13;100.00
46946;BME280;32679;40.810;14.498;2023-04-30T02:02:06;99835.19;;;15.24;100.00
46946;BME280;32679;40.810;14.498;2023-04-30T02:04:32;99838.38;;;15.18;100.00
46946;BME280;32679;40.810;14.498;2023-04-30T02:06:58;99836.78;;;15.10;100.00
46946;BME280;32679;40.810;14.498;2023-04-30T02:09:26;99838.75;;;15.17;100.00
46946;BME280;32679;40.810;14.498;2023-04-30T02:11:54;99840.38;;;15.14;100.00
46946;BME280;32679;40.810;14.498;2023-04-30T02:14:24;99842.78;;;15.19;100.00
46946;BME280;32679;40.810;14.498;2023-04-30T02:16:55;99835.97;;;15.17;99.43
46946;BME280;32679;40.810;14.498;2023-04-30T02:19:23;99839.19;;;15.19;100.00
46946;BME280;32679;40.810;14.498;2023-04-30T02:21:58;99844.38;;;15.20;100.00
46946;BME280;32679;40.810;14.498;2023-04-30T02:24:26;99835.56;;;15.22;100.00
46946;BME280;32679;40.810;14.498;2023-04-30T02:26:52;99826.34;;;15.22;99.98
46946;BME280;32679;40.810;14.498;2023-04-30T02:29:17;99832.38;;;15.24;99.66
46946;BME280;32679;40.810;14.498;2023-04-30T02:31:45;99841.97;;;15.23;99.98
46946;BME280;32679;40.810;14.498;2023-04-30T02:34:10;99835.59;;;15.18;99.86
46946;BME280;32679;40.810;14.498;2023-04-30T02:36:39;99832.38;;;15.20;99.72
46946;BME280;32679;40.810;14.498;2023-04-30T02:39:05;99832.38;;;15.09;98.84
46946;BME280;32679;40.810;14.498;2023-04-30T02:41:32;99828.38;;;15.14;99.00
46946;BME280;32679;40.810;14.498;2023-04-30T02:44:01;99823.56;;;15.14;98.50
46946;BME280;32679;40.810;14.498;2023-04-30T02:46:30;99819.56;;;15.19;97.90
46946;BME280;32679;40.810;14.498;2023-04-30T02:48:58;99821.97;;;15.13;97.93
46946;BME280;32679;40.810;14.498;2023-04-30T02:51:23;99819.56;;;15.15;98.19
46946;BME280;32679;40.810;14.498;2023-04-30T02:53:49;99815.97;;;15.18;97.89
46946;BME280;32679;40.810;14.498;2023-04-30T02:56:16;99816.34;;;15.17;97.30
46946;BME280;32679;40.810;14.498;2023-04-30T02:58:48;99815.56;;;15.16;97.13
46946;BME280;32679;40.810;14.498;2023-04-30T03:01:18;99810.78;;;15.13;97.86
46946;BME280;32679;40.810;14.498;2023-04-30T03:03:46;99801.16;;;15.07;98.03
46946;BME280;32679;40.810;14.498;2023-04-30T03:06:11;99810.78;;;15.13;97.91
46946;BME280;32679;40.810;14.498;2023-04-30T03:08:42;99807.56;;;15.11;97.94
46946;BME280;32679;40.810;14.498;2023-04-30T03:11:07;99813.16;;;15.11;98.36
46946;BME280;32679;40.810;14.498;2023-04-30T03:13:35;99802.75;;;15.05;98.61
46946;BME280;32679;40.810;14.498;2023-04-30T03:16:06;99806.38;;;15.05;99.09
46946;BME280;32679;40.810;14.498;2023-04-30T03:18:31;99798.34;;;15.07;98.95
46946;BME280;32679;40.810;14.498;2023-04-30T03:21:05;99792.34;;;15.05;99.36
46946;BME280;32679;40.810;14.498;2023-04-30T03:23:31;99791.56;;;15.05;99.28
46946;BME280;32679;40.810;14.498;2023-04-30T03:25:59;99790.75;;;15.04;98.63
46946;BME280;32679;40.810;14.498;2023-04-30T03:28:27;99765.97;;;14.92;97.72
46946;BME280;32679;40.810;14.498;2023-04-30T03:31:02;99793.16;;;15.09;97.81
46946;BME280;32679;40.810;14.498;2023-04-30T03:33:33;99789.97;;;15.00;98.30
46946;BME280;32679;40.810;14.498;2023-04-30T03:36:01;99789.97;;;14.97;99.11
46946;BME280;32679;40.810;14.498;2023-04-30T03:38:27;99795.56;;;14.89;99.31
46946;BME280;32679;40.810;14.498;2023-04-30T03:40:52;99788.75;;;14.90;100.00
46946;BME280;32679;40.810;14.498;2023-04-30T03:43:20;99790.78;;;14.90;99.37
46946;BME280;32679;40.810;14.498;2023-04-30T03:45:51;99783.97;;;14.80;99.04
46946;BME280;32679;40.810;14.498;2023-04-30T03:48:19;99783.97;;;14.84;99.52
46946;BME280;32679;40.810;14.498;2023-04-30T03:50:45;99783.19;;;14.80;99.54
46946;BME280;32679;40.810;14.498;2023-04-30T03:53:11;99772.78;;;14.77;99.58
46946;BME280;32679;40.810;14.498;2023-04-30T03:55:37;99781.19;;;14.77;100.00
46946;BME280;32679;40.810;14.498;2023-04-30T03:58:05;99775.19;;;14.75;100.00
46946;BME280;32679;40.810;14.498;2023-04-30T04:00:30;99775.59;;;14.73;100.00
46946;BME280;32679;40.810;14.498;2023-04-30T04:02:59;99782.00;;;14.77;100.00
46946;BME280;32679;40.810;14.498;2023-04-30T04:05:25;99769.97;;;14.70;100.00
46946;BME280;32679;40.810;14.498;2023-04-30T04:07:53;99775.59;;;14.77;100.00
46946;BME280;32679;40.810;14.498;2023-04-30T04:10:21;99775.97;;;14.82;100.00
46946;BME280;32679;40.810;14.498;2023-04-30T04:12:52;99774.38;;;14.78;100.00
46946;BME280;32679;40.810;14.498;2023-04-30T04:15:20;99777.56;;;14.83;100.00
46946;BME280;32679;40.810;14.498;2023-04-30T04:17:45;99781.19;;;14.87;100.00
46946;BME280;32679;40.810;14.498;2023-04-30T04:20:11;99777.97;;;14.92;100.00
46946;BME280;32679;40.810;14.498;2023-04-30T04:22:40;99773.16;;;14.97;100.00
46946;BME280;32679;40.810;14.498;2023-04-30T04:25:08;99770.34;;;15.00;100.00
46946;BME280;32679;40.810;14.498;2023-04-30T04:27:34;99773.53;;;15.06;100.00
46946;BME280;32679;40.810;14.498;2023-04-30T04:30:01;99775.09;;;15.17;100.00
46946;BME280;32679;40.810;14.498;2023-04-30T04:32:27;99770.72;;;15.20;100.00
46946;BME280;32679;40.810;14.498;2023-04-30T04:34:58;99769.91;;;15.19;100.00
46946;BME280;32679;40.810;14.498;2023-04-30T04:37:24;99775.91;;;15.29;98.13
46946;BME280;32679;40.810;14.498;2023-04-30T04:39:49;99775.50;;;15.23;99.07
46946;BME280;32679;40.810;14.498;2023-04-30T04:42:15;99777.09;;;15.28;99.45
46946;BME280;32679;40.810;14.498;2023-04-30T04:44:44;99775.09;;;15.35;97.78
46946;BME280;32679;40.810;14.498;2023-04-30T04:47:09;99771.44;;;15.38;98.41
46946;BME280;32679;40.810;14.498;2023-04-30T04:49:42;99769.03;;;15.51;99.09
46946;BME280;32679;40.810;14.498;2023-04-30T04:52:10;99739.44;;;15.39;98.70
46946;BME280;32679;40.810;14.498;2023-04-30T04:54:40;99766.59;;;15.67;98.47
46946;BME280;32679;40.810;14.498;2023-04-30T04:57:08;99754.94;;;15.73;98.77
46946;BME280;32679;40.810;14.498;2023-04-30T04:59:39;99762.50;;;15.83;98.58
46946;BME280;32679;40.810;14.498;2023-04-30T05:02:05;99757.56;;;16.01;98.33
46946;BME280;32679;40.810;14.498;2023-04-30T05:04:33;99765.09;;;16.18;97.39
46946;BME280;32679;40.810;14.498;2023-04-30T05:07:03;99759.03;;;16.23;96.59
46946;BME280;32679;40.810;14.498;2023-04-30T05:09:28;99756.19;;;16.31;95.57
46946;BME280;32679;40.810;14.498;2023-04-30T05:11:56;99753.69;;;16.40;96.32
46946;BME280;32679;40.810;14.498;2023-04-30T05:14:24;99764.84;;;16.50;94.79
46946;BME280;32679;40.810;14.498;2023-04-30T05:16:50;99765.97;;;16.60;94.79
46946;BME280;32679;40.810;14.498;2023-04-30T05:19:15;99760.16;;;16.89;92.62
46946;BME280;32679;40.810;14.498;2023-04-30T05:21:41;99774.59;;;16.87;91.32
46946;BME280;32679;40.810;14.498;2023-04-30T05:24:14;99771.31;;;16.96;90.88
46946;BME280;32679;40.810;14.498;2023-04-30T05:26:40;99762.50;;;16.94;90.03
46946;BME280;32679;40.810;14.498;2023-04-30T05:29:10;99764.84;;;16.99;88.23
46946;BME280;32679;40.810;14.498;2023-04-30T05:31:36;99746.00;;;16.99;88.38
46946;BME280;32679;40.810;14.498;2023-04-30T05:34:23;99763.69;;;16.96;85.38
46946;BME280;32679;40.810;14.498;2023-04-30T05:36:55;99752.00;;;17.01;85.78
46946;BME280;32679;40.810;14.498;2023-04-30T05:39:25;99751.88;;;17.12;85.10
46946;BME280;32679;40.810;14.498;2023-04-30T05:41:51;99749.41;;;17.18;84.79
46946;BME280;32679;40.810;14.498;2023-04-30T05:44:19;99748.59;;;17.21;85.10
46946;BME280;32679;40.810;14.498;2023-04-30T05:46:47;99749.38;;;17.21;84.08
46946;BME280;32679;40.810;14.498;2023-04-30T05:49:12;99745.19;;;17.37;82.86
46946;BME280;32679;40.810;14.498;2023-04-30T05:51:38;99750.28;;;17.45;81.60
46946;BME280;32679;40.810;14.498;2023-04-30T05:54:03;99746.69;;;17.45;80.28
46946;BME280;32679;40.810;14.498;2023-04-30T05:56:32;99748.22;;;17.53;80.52
46946;BME280;32679;40.810;14.498;2023-04-30T05:59:00;99750.75;;;17.40;79.91
46946;BME280;32679;40.810;14.498;2023-04-30T06:01:30;99753.03;;;17.52;80.49
46946;BME280;32679;40.810;14.498;2023-04-30T06:03:58;99759.34;;;17.60;79.48
46946;BME280;32679;40.810;14.498;2023-04-30T06:06:25;99755.59;;;17.40;78.56
46946;BME280;32679;40.810;14.498;2023-04-30T06:08:52;99753.50;;;17.47;79.18
46946;BME280;32679;40.810;14.498;2023-04-30T06:11:22;99737.81;;;17.46;78.54
46946;BME280;32679;40.810;14.498;2023-04-30T06:13:51;99758.59;;;17.56;78.52
46946;BME280;32679;40.810;14.498;2023-04-30T06:16:20;99749.72;;;17.58;78.57
46946;BME280;32679;40.810;14.498;2023-04-30T06:18:46;99764.78;;;17.78;77.70
46946;BME280;32679;40.810;14.498;2023-04-30T06:21:17;99757.16;;;18.05;77.19
46946;BME280;32679;40.810;14.498;2023-04-30T06:23:47;99754.94;;;18.20;75.42
46946;BME280;32679;40.810;14.498;2023-04-30T06:26:13;99758.56;;;18.21;73.48
46946;BME280;32679;40.810;14.498;2023-04-30T06:28:41;99751.38;;;18.43;73.71
46946;BME280;32679;40.810;14.498;2023-04-30T06:31:09;99754.03;;;18.54;71.81
46946;BME280;32679;40.810;14.498;2023-04-30T06:33:34;99756.13;;;18.73;69.42
46946;BME280;32679;40.810;14.498;2023-04-30T06:36:00;99763.91;;;18.89;70.25
46946;BME280;32679;40.810;14.498;2023-04-30T06:38:28;99758.72;;;18.88;69.46
46946;BME280;32679;40.810;14.498;2023-04-30T06:40:56;99758.94;;;18.73;68.95
46946;BME280;32679;40.810;14.498;2023-04-30T06:43:24;99764.59;;;18.73;70.01
46946;BME280;32679;40.810;14.498;2023-04-30T06:45:49;99761.19;;;18.86;69.18
46946;BME280;32679;40.810;14.498;2023-04-30T06:48:14;99764.72;;;18.90;68.45
46946;BME280;32679;40.810;14.498;2023-04-30T06:50:40;99762.22;;;19.15;68.55
46946;BME280;32679;40.810;14.498;2023-04-30T06:53:15;99759.22;;;19.26;68.38
46946;BME280;32679;40.810;14.498;2023-04-30T06:55:44;99753.81;;;19.55;67.80
46946;BME280;32679;40.810;14.498;2023-04-30T06:58:12;99761.75;;;20.00;65.61
46946;BME280;32679;40.810;14.498;2023-04-30T07:00:38;99767.50;;;20.49;63.70
46946;BME280;32679;40.810;14.498;2023-04-30T07:03:03;99763.72;;;20.88;59.98
46946;BME280;32679;40.810;14.498;2023-04-30T07:05:29;99771.88;;;21.15;59.23
46946;BME280;32679;40.810;14.498;2023-04-30T07:07:56;99776.31;;;21.00;59.56
46946;BME280;32679;40.810;14.498;2023-04-30T07:10:22;99778.13;;;21.23;58.44
46946;BME280;32679;40.810;14.498;2023-04-30T07:12:50;99767.59;;;20.78;59.26
46946;BME280;32679;40.810;14.498;2023-04-30T07:15:18;99767.53;;;21.27;58.90
46946;BME280;32679;40.810;14.498;2023-04-30T07:17:53;99764.28;;;20.30;60.10
46946;BME280;32679;40.810;14.498;2023-04-30T07:20:19;99767.00;;;20.34;61.29
46946;BME280;32679;40.810;14.498;2023-04-30T07:22:44;99769.69;;;20.41;61.64
46946;BME280;32679;40.810;14.498;2023-04-30T07:25:12;99773.75;;;20.40;62.13
46946;BME280;32679;40.810;14.498;2023-04-30T07:27:43;99774.53;;;20.40;62.61
46946;BME280;32679;40.810;14.498;2023-04-30T07:30:09;99773.44;;;20.34;61.94
46946;BME280;32679;40.810;14.498;2023-04-30T07:32:41;99779.25;;;20.80;61.30
46946;BME280;32679;40.810;14.498;2023-04-30T07:35:07;99747.97;;;20.54;60.70
46946;BME280;32679;40.810;14.498;2023-04-30T07:37:37;99779.69;;;20.95;60.33
46946;BME280;32679;40.810;14.498;2023-04-30T07:40:03;99774.16;;;21.20;59.19
46946;BME280;32679;40.810;14.498;2023-04-30T07:42:31;99783.38;;;21.08;58.90
46946;BME280;32679;40.810;14.498;2023-04-30T07:45:00;99783.28;;;21.11;58.35
46946;BME280;32679;40.810;14.498;2023-04-30T07:47:29;99784.28;;;21.05;57.59
46946;BME280;32679;40.810;14.498;2023-04-30T07:49:57;99771.88;;;21.15;58.45
46946;BME280;32679;40.810;14.498;2023-04-30T07:52:25;99769.66;;;21.52;57.68
46946;BME280;32679;40.810;14.498;2023-04-30T07:54:53;99776.09;;;22.48;52.71
46946;BME280;32679;40.810;14.498;2023-04-30T07:57:19;99772.06;;;21.95;55.13
46946;BME280;32679;40.810;14.498;2023-04-30T07:59:49;99774.94;;;21.66;56.19
46946;BME280;32679;40.810;14.498;2023-04-30T08:02:17;99783.41;;;22.08;55.27
46946;BME280;32679;40.810;14.498;2023-04-30T08:04:45;99782.34;;;21.89;55.20
46946;BME280;32679;40.810;14.498;2023-04-30T08:07:14;99786.56;;;22.10;54.15
46946;BME280;32679;40.810;14.498;2023-04-30T08:09:42;99790.19;;;21.97;53.52
46946;BME280;32679;40.810;14.498;2023-04-30T08:12:10;99792.63;;;22.12;54.55
46946;BME280;32679;40.810;14.498;2023-04-30T08:14:36;99789.31;;;22.13;54.65
46946;BME280;32679;40.810;14.498;2023-04-30T08:17:07;99795.03;;;22.39;53.84
46946;BME280;32679;40.810;14.498;2023-04-30T08:19:33;99788.31;;;22.45;51.42
46946;BME280;32679;40.810;14.498;2023-04-30T08:21:58;99789.81;;;22.37;51.85
46946;BME280;32679;40.810;14.498;2023-04-30T08:24:26;99795.69;;;22.43;52.09
46946;BME280;32679;40.810;14.498;2023-04-30T08:26:51;99793.97;;;22.20;52.84
46946;BME280;32679;40.810;14.498;2023-04-30T08:29:17;99795.22;;;22.83;51.45
46946;BME280;32679;40.810;14.498;2023-04-30T08:31:42;99796.34;;;22.98;50.47
46946;BME280;32679;40.810;14.498;2023-04-30T08:34:08;99806.97;;;23.19;48.89
46946;BME280;32679;40.810;14.498;2023-04-30T08:36:36;99805.88;;;23.39;49.63
46946;BME280;32679;40.810;14.498;2023-04-30T08:39:04;99809.34;;;23.21;51.18
46946;BME280;32679;40.810;14.498;2023-04-30T08:41:32;99801.38;;;23.63;49.82
46946;BME280;32679;40.810;14.498;2023-04-30T08:44:01;99811.03;;;23.66;48.25
46946;BME280;32679;40.810;14.498;2023-04-30T08:46:30;99801.72;;;23.52;48.70
46946;BME280;32679;40.810;14.498;2023-04-30T08:48:59;99806.31;;;23.37;49.50
46946;BME280;32679;40.810;14.498;2023-04-30T08:51:30;99811.34;;;23.33;50.35
46946;BME280;32679;40.810;14.498;2023-04-30T08:53:59;99810.53;;;23.33;49.29
46946;BME280;32679;40.810;14.498;2023-04-30T08:56:24;99810.91;;;23.22;49.85
46946;BME280;32679;40.810;14.498;2023-04-30T08:58:52;99804.38;;;22.99;50.11
46946;BME280;32679;40.810;14.498;2023-04-30T09:01:18;99807.59;;;23.02;50.71
46946;BME280;32679;40.810;14.498;2023-04-30T09:03:44;99807.91;;;23.38;49.37
46946;BME280;32679;40.810;14.498;2023-04-30T09:06:16;99807.84;;;23.64;47.81
46946;BME280;32679;40.810;14.498;2023-04-30T09:08:43;99810.63;;;23.42;48.60
46946;BME280;32679;40.810;14.498;2023-04-30T09:11:25;99795.94;;;23.78;47.28
46946;BME280;32679;40.810;14.498;2023-04-30T09:13:52;99800.91;;;24.80;45.08
46946;BME280;32679;40.810;14.498;2023-04-30T09:16:19;99810.72;;;24.88;44.35
46946;BME280;32679;40.810;14.498;2023-04-30T09:18:45;99804.25;;;24.97;43.66
46946;BME280;32679;40.810;14.498;2023-04-30T09:21:11;99802.59;;;25.27;42.68
46946;BME280;32679;40.810;14.498;2023-04-30T09:23:53;99799.13;;;25.50;41.10
46946;BME280;32679;40.810;14.498;2023-04-30T09:26:26;99804.19;;;25.37;42.04
46946;BME280;32679;40.810;14.498;2023-04-30T09:28:56;99806.25;;;24.38;43.89
46946;BME280;32679;40.810;14.498;2023-04-30T09:31:25;99795.88;;;24.44;44.27
46946;BME280;32679;40.810;14.498;2023-04-30T09:33:52;99801.03;;;25.53;43.12
46946;BME280;32679;40.810;14.498;2023-04-30T09:36:20;99806.72;;;25.53;42.54
46946;BME280;32679;40.810;14.498;2023-04-30T09:38:47;99800.53;;;25.46;42.74
46946;BME280;32679;40.810;14.498;2023-04-30T09:41:27;99803.81;;;25.07;43.92
46946;BME280;32679;40.810;14.498;2023-04-30T09:43:58;99794.91;;;24.78;44.96
46946;BME280;32679;40.810;14.498;2023-04-30T09:46:31;99786.34;;;24.78;44.45
46946;BME280;32679;40.810;14.498;2023-04-30T09:49:02;99785.19;;;25.43;43.83
46946;BME280;32679;40.810;14.498;2023-04-30T09:51:30;99794.69;;;25.68;42.87
46946;BME280;32679;40.810;14.498;2023-04-30T09:54:02;99777.75;;;25.46;44.37
46946;BME280;32679;40.810;14.498;2023-04-30T09:56:34;99778.56;;;25.46;44.17
46946;BME280;32679;40.810;14.498;2023-04-30T09:59:07;99769.69;;;25.44;44.73
46946;BME280;32679;40.810;14.498;2023-04-30T10:01:34;99771.59;;;25.38;43.78
46946;BME280;32679;40.810;14.498;2023-04-30T10:04:04;99766.63;;;25.02;43.92
46946;BME280;32679;40.810;14.498;2023-04-30T10:06:30;99770.38;;;24.80;44.56
46946;BME280;32679;40.810;14.498;2023-04-30T10:09:03;99761.34;;;24.33;45.46
46946;BME280;32679;40.810;14.498;2023-04-30T10:11:31;99769.53;;;24.52;45.29
46946;BME280;32679;40.810;14.498;2023-04-30T10:14:03;99772.22;;;24.25;46.43
46946;BME280;32679;40.810;14.498;2023-04-30T10:19:18;99762.97;;;23.81;45.91
46946;BME280;32679;40.810;14.498;2023-04-30T10:21:46;99759.47;;;23.55;46.23
46946;BME280;32679;40.810;14.498;2023-04-30T10:24:13;99763.34;;;23.26;46.94
46946;BME280;32679;40.810;14.498;2023-04-30T10:26:42;99765.94;;;23.33;47.76
46946;BME280;32679;40.810;14.498;2023-04-30T10:29:08;99778.69;;;23.16;47.47
46946;BME280;32679;40.810;14.498;2023-04-30T10:31:35;99770.63;;;22.67;49.88
46946;BME280;32679;40.810;14.498;2023-04-30T10:37:19;99776.03;;;22.99;50.13
46946;BME280;32679;40.810;14.498;2023-04-30T10:39:46;99767.22;;;22.72;50.20
46946;BME280;32679;40.810;14.498;2023-04-30T10:42:14;99760.19;;;22.64;50.80
46946;BME280;32679;40.810;14.498;2023-04-30T10:44:40;99765.75;;;22.42;52.63
46946;BME280;32679;40.810;14.498;2023-04-30T10:47:09;99766.44;;;22.33;52.46
46946;BME280;32679;40.810;14.498;2023-04-30T10:49:34;99762.13;;;22.41;52.99
46946;BME280;32679;40.810;14.498;2023-04-30T10:52:04;99766.53;;;22.42;52.63
46946;BME280;32679;40.810;14.498;2023-04-30T10:54:31;99768.72;;;22.38;52.41
46946;BME280;32679;40.810;14.498;2023-04-30T10:57:13;99766.09;;;22.18;53.35
46946;BME280;32679;40.810;14.498;2023-04-30T11:02:39;99771.31;;;22.20;53.70
46946;BME280;32679;40.810;14.498;2023-04-30T11:07:57;99761.94;;;21.81;54.69
46946;BME280;32679;40.810;14.498;2023-04-30T11:10:29;99760.91;;;21.75;55.38
46946;BME280;32679;40.810;14.498;2023-04-30T11:13:02;99768.00;;;21.54;55.45
46946;BME280;32679;40.810;14.498;2023-04-30T11:15:33;99770.38;;;21.56;55.78
46946;BME280;32679;40.810;14.498;2023-04-30T11:18:03;99763.25;;;21.64;56.27
46946;BME280;32679;40.810;14.498;2023-04-30T11:20:30;99757.97;;;21.79;55.67
46946;BME280;32679;40.810;14.498;2023-04-30T11:23:15;99760.06;;;21.62;56.04
46946;BME280;32679;40.810;14.498;2023-04-30T11:25:46;99762.16;;;21.74;55.91
46946;BME280;32679;40.810;14.498;2023-04-30T11:28:16;99750.25;;;21.66;55.36
46946;BME280;32679;40.810;14.498;2023-04-30T11:30:56;99757.72;;;21.73;55.51
46946;BME280;32679;40.810;14.498;2023-04-30T11:33:26;99757.59;;;21.64;55.78
46946;BME280;32679;40.810;14.498;2023-04-30T11:35:52;99754.13;;;21.43;56.50
46946;BME280;32679;40.810;14.498;2023-04-30T11:38:28;99749.84;;;21.52;56.27
46946;BME280;32679;40.810;14.498;2023-04-30T11:40:53;99753.44;;;21.39;56.55
46946;BME280;32679;40.810;14.498;2023-04-30T11:43:27;99744.00;;;21.30;57.33
46946;BME280;32679;40.810;14.498;2023-04-30T11:46:14;99746.47;;;21.28;58.33
46946;BME280;32679;40.810;14.498;2023-04-30T11:48:42;99750.44;;;21.30;57.53
46946;BME280;32679;40.810;14.498;2023-04-30T11:53:38;99738.44;;;21.26;57.92
46946;BME280;32679;40.810;14.498;2023-04-30T11:56:04;99740.47;;;21.26;58.77
46946;BME280;32679;40.810;14.498;2023-04-30T11:58:35;99739.38;;;21.36;58.38
46946;BME280;32679;40.810;14.498;2023-04-30T12:01:04;99731.00;;;21.32;58.67
46946;BME280;32679;40.810;14.498;2023-04-30T12:03:30;99735.59;;;21.26;57.68
46946;BME280;32679;40.810;14.498;2023-04-30T12:05:55;99731.00;;;21.32;58.21
46946;BME280;32679;40.810;14.498;2023-04-30T12:08:21;99732.59;;;21.33;57.72
46946;BME280;32679;40.810;14.498;2023-04-30T12:10:51;99732.06;;;21.22;58.33
46946;BME280;32679;40.810;14.498;2023-04-30T12:13:16;99724.56;;;21.32;58.51
46946;BME280;32679;40.810;14.498;2023-04-30T12:15:42;99721.94;;;21.66;57.72
46946;BME280;32679;40.810;14.498;2023-04-30T12:18:23;99732.78;;;21.55;57.90
46946;BME280;32679;40.810;14.498;2023-04-30T12:20:52;99724.03;;;21.50;57.71
46946;BME280;32679;40.810;14.498;2023-04-30T12:23:18;99725.44;;;21.58;57.61
46946;BME280;32679;40.810;14.498;2023-04-30T12:25:44;99706.50;;;21.42;57.28
46946;BME280;32679;40.810;14.498;2023-04-30T12:28:14;99712.63;;;21.66;57.07
46946;BME280;32679;40.810;14.498;2023-04-30T12:30:41;99705.72;;;21.67;57.68
46946;BME280;32679;40.810;14.498;2023-04-30T12:33:09;99714.13;;;21.83;57.08
46946;BME280;32679;40.810;14.498;2023-04-30T12:35:35;99700.19;;;21.63;57.71
46946;BME280;32679;40.810;14.498;2023-04-30T12:38:05;99700.84;;;21.55;57.71
46946;BME280;32679;40.810;14.498;2023-04-30T12:40:36;99702.09;;;21.54;57.77
46946;BME280;32679;40.810;14.498;2023-04-30T12:43:06;99701.31;;;21.53;57.91
46946;BME280;32679;40.810;14.498;2023-04-30T12:48:13;99696.81;;;21.68;57.22
46946;BME280;32679;40.810;14.498;2023-04-30T12:50:39;99693.09;;;21.84;56.24
46946;BME280;32679;40.810;14.498;2023-04-30T12:53:05;99688.75;;;21.67;56.21
46946;BME280;32679;40.810;14.498;2023-04-30T12:55:34;99683.34;;;21.85;56.37
46946;BME280;32679;40.810;14.498;2023-04-30T13:00:49;99689.47;;;21.96;55.45
46946;BME280;32679;40.810;14.498;2023-04-30T13:03:20;99681.75;;;21.84;55.79
46946;BME280;32679;40.810;14.498;2023-04-30T13:05:47;99665.47;;;22.14;55.31
46946;BME280;32679;40.810;14.498;2023-04-30T13:08:17;99677.72;;;22.11;54.64
46946;BME280;32679;40.810;14.498;2023-04-30T13:10:43;99659.31;;;22.03;55.37
46946;BME280;32679;40.810;14.498;2023-04-30T13:13:10;99663.56;;;22.11;55.02
46946;BME280;32679;40.810;14.498;2023-04-30T13:15:39;99629.75;;;21.78;56.01
46946;BME280;32679;40.810;14.498;2023-04-30T13:18:06;99655.06;;;22.11;55.08
46946;BME280;32679;40.810;14.498;2023-04-30T13:20:37;99621.94;;;21.82;55.27
46946;BME280;32679;40.810;14.498;2023-04-30T13:23:03;99656.50;;;22.03;54.96
46946;BME280;32679;40.810;14.498;2023-04-30T13:25:32;99653.88;;;22.21;54.76
46946;BME280;32679;40.810;14.498;2023-04-30T13:27:57;99666.25;;;22.02;55.13
46946;BME280;32679;40.810;14.498;2023-04-30T13:30:24;99663.41;;;21.76;54.87
46946;BME280;32679;40.810;14.498;2023-04-30T13:32:50;99643.47;;;21.92;55.63
46946;BME280;32679;40.810;14.498;2023-04-30T13:35:20;99661.59;;;21.82;55.22